sensor_id;sensor_type;location;lat;lon;timestamp;temperature;humidity
46898;DHT22;32646;50.958;6.258;2023-01-10T00:00:53;5.00;99.90
46898;DHT22;32646;50.958;6.258;2023-01-10T00:03:19;5.00;99.90
46898;DHT22;32646;50.958;6.258;2023-01-10T00:05:46;5.10;99.90
46898;DHT22;32646;50.958;6.258;2023-01-10T00:08:15;5.20;99.90
46898;DHT22;32646;50.958;6.258;2023-01-10T00:10:42;5.20;99.90
46898;DHT22;32646;50.958;6.258;2023-01-10T00:13:16;5.30;99.90
46898;DHT22;32646;50.958;6.258;2023-01-10T00:15:43;5.30;99.90
46898;DHT22;32646;50.958;6.258;2023-01-10T00:18:10;5.30;99.90
46898;DHT22;32646;50.958;6.258;2023-01-10T00:20:37;5.30;99.90
46898;DHT22;32646;50.958;6.258;2023-01-10T00:23:04;5.30;99.90
46898;DHT22;32646;50.958;6.258;2023-01-10T00:25:30;5.30;99.90
46898;DHT22;32646;50.958;6.258;2023-01-10T00:27:57;5.30;99.90
46898;DHT22;32646;50.958;6.258;2023-01-10T00:30:24;5.30;99.90
46898;DHT22;32646;50.958;6.258;2023-01-10T00:32:50;5.20;99.90
46898;DHT22;32646;50.958;6.258;2023-01-10T00:35:17;5.10;99.90
46898;DHT22;32646;50.958;6.258;2023-01-10T00:37:43;5.10;99.90
46898;DHT22;32646;50.958;6.258;2023-01-10T00:40:11;5.00;99.90
46898;DHT22;32646;50.958;6.258;2023-01-10T00:42:37;5.00;99.90
46898;DHT22;32646;50.958;6.258;2023-01-10T00:45:04;4.90;99.90
46898;DHT22;32646;50.958;6.258;2023-01-10T00:47:31;4.90;99.90
46898;DHT22;32646;50.958;6.258;2023-01-10T00:50:01;4.90;99.90
46898;DHT22;32646;50.958;6.258;2023-01-10T00:52:27;4.80;99.90
46898;DHT22;32646;50.958;6.258;2023-01-10T00:54:54;4.80;99.90
46898;DHT22;32646;50.958;6.258;2023-01-10T00:57:20;4.90;99.90
46898;DHT22;32646;50.958;6.258;2023-01-10T00:59:47;4.90;99.90
46898;DHT22;32646;50.958;6.258;2023-01-10T01:02:13;4.90;99.90
46898;DHT22;32646;50.958;6.258;2023-01-10T01:04:40;5.00;99.90
46898;DHT22;32646;50.958;6.258;2023-01-10T01:07:07;5.00;99.90
46898;DHT22;32646;50.958;6.258;2023-01-10T01:09:33;4.90;99.90
46898;DHT22;32646;50.958;6.258;2023-01-10T01:12:00;4.90;99.90
46898;DHT22;32646;50.958;6.258;2023-01-10T01:14:26;4.80;99.90
46898;DHT22;32646;50.958;6.258;2023-01-10T01:16:53;4.70;99.90
46898;DHT22;32646;50.958;6.258;2023-01-10T01:19:20;4.70;99.90
46898;DHT22;32646;50.958;6.258;2023-01-10T01:21:46;4.70;99.90
46898;DHT22;32646;50.958;6.258;2023-01-10T01:24:13;4.80;99.90
46898;DHT22;32646;50.958;6.258;2023-01-10T01:26:39;4.90;99.90
46898;DHT22;32646;50.958;6.258;2023-01-10T01:29:06;4.80;99.90
46898;DHT22;32646;50.958;6.258;2023-01-10T01:31:32;4.80;99.90
46898;DHT22;32646;50.958;6.258;2023-01-10T01:33:59;4.90;99.90
46898;DHT22;32646;50.958;6.258;2023-01-10T01:36:26;4.80;99.90
46898;DHT22;32646;50.958;6.258;2023-01-10T01:38:52;4.80;99.90
46898;DHT22;32646;50.958;6.258;2023-01-10T01:41:19;4.80;99.90
46898;DHT22;32646;50.958;6.258;2023-01-10T01:43:59;4.80;99.90
46898;DHT22;32646;50.958;6.258;2023-01-10T01:46:27;4.70;99.90
46898;DHT22;32646;50.958;6.258;2023-01-10T01:48:53;4.80;99.90
46898;DHT22;32646;50.958;6.258;2023-01-10T01:51:23;4.80;99.90
46898;DHT22;32646;50.958;6.258;2023-01-10T01:54:02;4.70;99.90
46898;DHT22;32646;50.958;6.258;2023-01-10T01:56:35;4.70;99.90
46898;DHT22;32646;50.958;6.258;2023-01-10T01:59:17;4.60;99.90
46898;DHT22;32646;50.958;6.258;2023-01-10T02:01:48;4.50;99.90
46898;DHT22;32646;50.958;6.258;2023-01-10T02:04:22;4.50;99.90
46898;DHT22;32646;50.958;6.258;2023-01-10T02:06:51;4.40;99.90
46898;DHT22;32646;50.958;6.258;2023-01-10T02:09:29;4.50;99.90
46898;DHT22;32646;50.958;6.258;2023-01-10T02:11:58;4.40;99.90
46898;DHT22;32646;50.958;6.258;2023-01-10T02:14:27;4.50;99.90
46898;DHT22;32646;50.958;6.258;2023-01-10T02:16:55;4.60;99.90
46898;DHT22;32646;50.958;6.258;2023-01-10T02:33:21;4.50;99.90
46898;DHT22;32646;50.958;6.258;2023-01-10T02:41:30;4.50;99.90
46898;DHT22;32646;50.958;6.258;2023-01-10T02:44:33;4.40;99.90
46898;DHT22;32646;50.958;6.258;2023-01-10T02:47:03;4.40;99.90
46898;DHT22;32646;50.958;6.258;2023-01-10T02:49:30;4.40;99.90
46898;DHT22;32646;50.958;6.258;2023-01-10T02:51:56;4.40;99.90
46898;DHT22;32646;50.958;6.258;2023-01-10T02:54:26;4.50;99.90
46898;DHT22;32646;50.958;6.258;2023-01-10T03:08:23;4.20;99.90
46898;DHT22;32646;50.958;6.258;2023-01-10T03:11:06;4.30;99.90
46898;DHT22;32646;50.958;6.258;2023-01-10T03:13:56;4.20;99.90
46898;DHT22;32646;50.958;6.258;2023-01-10T03:16:26;4.30;99.90
46898;DHT22;32646;50.958;6.258;2023-01-10T03:19:00;4.30;99.90
46898;DHT22;32646;50.958;6.258;2023-01-10T03:21:30;4.20;99.90
46898;DHT22;32646;50.958;6.258;2023-01-10T03:24:01;4.20;99.90
46898;DHT22;32646;50.958;6.258;2023-01-10T03:26:34;4.10;99.90
46898;DHT22;32646;50.958;6.258;2023-01-10T03:29:09;4.00;99.90
46898;DHT22;32646;50.958;6.258;2023-01-10T03:31:45;4.00;99.90
46898;DHT22;32646;50.958;6.258;2023-01-10T03:34:14;4.20;99.90
46898;DHT22;32646;50.958;6.258;2023-01-10T03:36:45;4.30;99.90
46898;DHT22;32646;50.958;6.258;2023-01-10T03:39:27;4.30;99.90
46898;DHT22;32646;50.958;6.258;2023-01-10T03:42:31;4.30;99.90
46898;DHT22;32646;50.958;6.258;2023-01-10T03:45:07;4.30;99.90
46898;DHT22;32646;50.958;6.258;2023-01-10T03:47:39;4.30;99.90
46898;DHT22;32646;50.958;6.258;2023-01-10T03:50:12;4.30;99.90
46898;DHT22;32646;50.958;6.258;2023-01-10T03:52:41;4.30;99.90
46898;DHT22;32646;50.958;6.258;2023-01-10T03:55:13;4.30;99.90
46898;DHT22;32646;50.958;6.258;2023-01-10T03:57:43;4.40;99.90
46898;DHT22;32646;50.958;6.258;2023-01-10T04:00:11;4.40;99.90
46898;DHT22;32646;50.958;6.258;2023-01-10T04:02:38;4.50;99.90
46898;DHT22;32646;50.958;6.258;2023-01-10T04:05:05;4.50;99.90
46898;DHT22;32646;50.958;6.258;2023-01-10T04:07:32;4.40;99.90
46898;DHT22;32646;50.958;6.258;2023-01-10T04:09:59;4.40;99.90
46898;DHT22;32646;50.958;6.258;2023-01-10T04:12:26;4.30;99.90
46898;DHT22;32646;50.958;6.258;2023-01-10T04:14:52;4.30;99.90
46898;DHT22;32646;50.958;6.258;2023-01-10T04:17:19;4.20;99.90
46898;DHT22;32646;50.958;6.258;2023-01-10T04:19:45;4.20;99.90
46898;DHT22;32646;50.958;6.258;2023-01-10T04:22:12;4.20;99.90
46898;DHT22;32646;50.958;6.258;2023-01-10T04:24:39;4.10;99.90
46898;DHT22;32646;50.958;6.258;2023-01-10T04:27:06;4.10;99.90
46898;DHT22;32646;50.958;6.258;2023-01-10T04:29:32;4.20;99.90
46898;DHT22;32646;50.958;6.258;2023-01-10T04:31:59;4.20;99.90
46898;DHT22;32646;50.958;6.258;2023-01-10T04:34:26;4.30;99.90
46898;DHT22;32646;50.958;6.258;2023-01-10T04:36:52;4.40;99.90
46898;DHT22;32646;50.958;6.258;2023-01-10T04:39:19;4.30;99.90
46898;DHT22;32646;50.958;6.258;2023-01-10T04:41:45;4.40;99.90
46898;DHT22;32646;50.958;6.258;2023-01-10T04:44:12;4.40;99.90
46898;DHT22;32646;50.958;6.258;2023-01-10T04:46:38;4.30;99.90
46898;DHT22;32646;50.958;6.258;2023-01-10T04:49:05;4.30;99.90
46898;DHT22;32646;50.958;6.258;2023-01-10T04:51:32;4.20;99.90
46898;DHT22;32646;50.958;6.258;2023-01-10T04:53:58;4.20;99.90
46898;DHT22;32646;50.958;6.258;2023-01-10T04:56:25;4.10;99.90
46898;DHT22;32646;50.958;6.258;2023-01-10T04:58:51;4.20;99.90
46898;DHT22;32646;50.958;6.258;2023-01-10T05:01:22;4.20;99.90
46898;DHT22;32646;50.958;6.258;2023-01-10T05:03:50;4.30;99.90
46898;DHT22;32646;50.958;6.258;2023-01-10T05:06:18;4.30;99.90
46898;DHT22;32646;50.958;6.258;2023-01-10T05:08:45;4.20;99.90
46898;DHT22;32646;50.958;6.258;2023-01-10T05:11:12;4.20;99.90
46898;DHT22;32646;50.958;6.258;2023-01-10T05:13:39;4.20;99.90
46898;DHT22;32646;50.958;6.258;2023-01-10T05:16:06;4.20;99.90
46898;DHT22;32646;50.958;6.258;2023-01-10T05:18:32;4.30;99.90
46898;DHT22;32646;50.958;6.258;2023-01-10T05:21:00;4.30;99.90
46898;DHT22;32646;50.958;6.258;2023-01-10T05:23:28;4.30;99.90
46898;DHT22;32646;50.958;6.258;2023-01-10T05:25:54;4.30;99.90
46898;DHT22;32646;50.958;6.258;2023-01-10T05:28:21;4.30;99.90
46898;DHT22;32646;50.958;6.258;2023-01-10T05:30:48;4.30;99.90
46898;DHT22;32646;50.958;6.258;2023-01-10T05:33:15;4.30;99.90
46898;DHT22;32646;50.958;6.258;2023-01-10T05:35:42;4.40;99.90
46898;DHT22;32646;50.958;6.258;2023-01-10T05:38:08;4.50;99.90
46898;DHT22;32646;50.958;6.258;2023-01-10T05:40:35;4.40;99.90
46898;DHT22;32646;50.958;6.258;2023-01-10T05:43:01;4.40;99.90
46898;DHT22;32646;50.958;6.258;2023-01-10T05:45:28;4.30;99.90
46898;DHT22;32646;50.958;6.258;2023-01-10T05:47:54;4.30;99.90
46898;DHT22;32646;50.958;6.258;2023-01-10T05:50:21;4.20;99.90
46898;DHT22;32646;50.958;6.258;2023-01-10T05:52:47;4.20;99.90
46898;DHT22;32646;50.958;6.258;2023-01-10T05:55:14;4.20;99.90
46898;DHT22;32646;50.958;6.258;2023-01-10T05:57:40;4.20;99.90
46898;DHT22;32646;50.958;6.258;2023-01-10T06:00:07;4.20;99.90
46898;DHT22;32646;50.958;6.258;2023-01-10T06:02:34;4.20;99.90
46898;DHT22;32646;50.958;6.258;2023-01-10T06:05:00;4.20;99.90
46898;DHT22;32646;50.958;6.258;2023-01-10T06:07:27;4.30;99.90
46898;DHT22;32646;50.958;6.258;2023-01-10T06:09:54;4.20;99.90
46898;DHT22;32646;50.958;6.258;2023-01-10T06:12:20;4.20;99.90
46898;DHT22;32646;50.958;6.258;2023-01-10T06:14:47;4.30;99.90
46898;DHT22;32646;50.958;6.258;2023-01-10T06:17:13;4.30;99.90
46898;DHT22;32646;50.958;6.258;2023-01-10T06:19:40;4.20;99.90
46898;DHT22;32646;50.958;6.258;2023-01-10T06:22:07;4.20;99.90
46898;DHT22;32646;50.958;6.258;2023-01-10T06:24:33;4.20;99.90
46898;DHT22;32646;50.958;6.258;2023-01-10T06:27:00;4.20;99.90
46898;DHT22;32646;50.958;6.258;2023-01-10T06:29:26;4.20;99.90
46898;DHT22;32646;50.958;6.258;2023-01-10T06:31:53;4.10;99.90
46898;DHT22;32646;50.958;6.258;2023-01-10T06:34:19;4.10;99.90
46898;DHT22;32646;50.958;6.258;2023-01-10T06:36:46;4.10;99.90
46898;DHT22;32646;50.958;6.258;2023-01-10T06:39:12;4.20;99.90
46898;DHT22;32646;50.958;6.258;2023-01-10T06:41:39;4.10;99.90
46898;DHT22;32646;50.958;6.258;2023-01-10T06:44:05;4.10;99.90
46898;DHT22;32646;50.958;6.258;2023-01-10T06:46:32;4.00;99.90
46898;DHT22;32646;50.958;6.258;2023-01-10T06:48:59;3.90;99.90
46898;DHT22;32646;50.958;6.258;2023-01-10T06:51:25;3.90;99.90
46898;DHT22;32646;50.958;6.258;2023-01-10T06:53:52;3.80;99.90
46898;DHT22;32646;50.958;6.258;2023-01-10T06:56:18;3.80;99.90
46898;DHT22;32646;50.958;6.258;2023-01-10T06:58:47;3.70;99.90
46898;DHT22;32646;50.958;6.258;2023-01-10T07:01:17;3.70;99.90
46898;DHT22;32646;50.958;6.258;2023-01-10T07:03:44;3.70;99.90
46898;DHT22;32646;50.958;6.258;2023-01-10T07:06:10;3.80;99.90
46898;DHT22;32646;50.958;6.258;2023-01-10T07:08:42;3.70;99.90
46898;DHT22;32646;50.958;6.258;2023-01-10T07:11:10;3.80;99.90
46898;DHT22;32646;50.958;6.258;2023-01-10T07:13:36;3.80;99.90
46898;DHT22;32646;50.958;6.258;2023-01-10T07:16:04;3.70;99.90
46898;DHT22;32646;50.958;6.258;2023-01-10T07:18:31;3.80;99.90
46898;DHT22;32646;50.958;6.258;2023-01-10T07:20:59;3.80;99.90
46898;DHT22;32646;50.958;6.258;2023-01-10T07:23:25;3.90;99.90
46898;DHT22;32646;50.958;6.258;2023-01-10T07:25:52;3.80;99.90
46898;DHT22;32646;50.958;6.258;2023-01-10T07:28:19;3.80;99.90
46898;DHT22;32646;50.958;6.258;2023-01-10T07:30:45;3.80;99.90
46898;DHT22;32646;50.958;6.258;2023-01-10T07:33:12;3.80;99.90
46898;DHT22;32646;50.958;6.258;2023-01-10T07:35:38;3.80;99.90
46898;DHT22;32646;50.958;6.258;2023-01-10T07:38:05;3.80;99.90
46898;DHT22;32646;50.958;6.258;2023-01-10T07:40:31;3.90;99.90
46898;DHT22;32646;50.958;6.258;2023-01-10T07:42:58;3.80;99.90
46898;DHT22;32646;50.958;6.258;2023-01-10T07:45:26;3.80;99.90
46898;DHT22;32646;50.958;6.258;2023-01-10T07:47:58;3.80;99.90
46898;DHT22;32646;50.958;6.258;2023-01-10T07:50:27;3.90;99.90
46898;DHT22;32646;50.958;6.258;2023-01-10T07:52:54;3.90;99.90
46898;DHT22;32646;50.958;6.258;2023-01-10T07:55:21;3.90;99.90
46898;DHT22;32646;50.958;6.258;2023-01-10T07:57:51;3.90;99.90
46898;DHT22;32646;50.958;6.258;2023-01-10T08:00:18;3.90;99.90
46898;DHT22;32646;50.958;6.258;2023-01-10T08:02:46;3.90;99.90
46898;DHT22;32646;50.958;6.258;2023-01-10T08:05:14;3.90;99.90
46898;DHT22;32646;50.958;6.258;2023-01-10T08:07:40;3.90;99.90
46898;DHT22;32646;50.958;6.258;2023-01-10T08:10:07;4.00;99.90
46898;DHT22;32646;50.958;6.258;2023-01-10T08:12:34;4.00;99.90
46898;DHT22;32646;50.958;6.258;2023-01-10T08:15:01;4.00;99.90
46898;DHT22;32646;50.958;6.258;2023-01-10T08:17:27;4.10;99.90
46898;DHT22;32646;50.958;6.258;2023-01-10T08:19:54;4.20;99.90
46898;DHT22;32646;50.958;6.258;2023-01-10T08:22:21;4.30;99.90
46898;DHT22;32646;50.958;6.258;2023-01-10T08:24:47;4.50;99.90
46898;DHT22;32646;50.958;6.258;2023-01-10T08:27:14;4.70;99.90
46898;DHT22;32646;50.958;6.258;2023-01-10T08:29:40;4.80;99.90
46898;DHT22;32646;50.958;6.258;2023-01-10T08:32:07;4.90;99.90
46898;DHT22;32646;50.958;6.258;2023-01-10T08:34:34;5.00;99.90
46898;DHT22;32646;50.958;6.258;2023-01-10T08:37:01;5.10;99.90
46898;DHT22;32646;50.958;6.258;2023-01-10T08:39:28;5.30;99.90
46898;DHT22;32646;50.958;6.258;2023-01-10T08:41:55;5.30;99.90
46898;DHT22;32646;50.958;6.258;2023-01-10T08:44:22;5.30;99.90
46898;DHT22;32646;50.958;6.258;2023-01-10T08:46:49;5.40;99.90
46898;DHT22;32646;50.958;6.258;2023-01-10T08:49:16;5.40;99.90
46898;DHT22;32646;50.958;6.258;2023-01-10T08:51:42;5.30;99.90
46898;DHT22;32646;50.958;6.258;2023-01-10T08:54:09;5.40;99.90
46898;DHT22;32646;50.958;6.258;2023-01-10T08:56:36;5.40;99.90
46898;DHT22;32646;50.958;6.258;2023-01-10T08:59:03;5.50;99.90
46898;DHT22;32646;50.958;6.258;2023-01-10T09:01:29;5.80;99.90
46898;DHT22;32646;50.958;6.258;2023-01-10T09:03:56;6.00;99.90
46898;DHT22;32646;50.958;6.258;2023-01-10T09:06:23;6.20;99.90
46898;DHT22;32646;50.958;6.258;2023-01-10T09:08:51;6.20;99.90
46898;DHT22;32646;50.958;6.258;2023-01-10T09:11:17;6.40;99.90
46898;DHT22;32646;50.958;6.258;2023-01-10T09:13:48;6.90;99.90
46898;DHT22;32646;50.958;6.258;2023-01-10T09:16:15;6.90;99.90
46898;DHT22;32646;50.958;6.258;2023-01-10T09:18:42;7.00;99.90
46898;DHT22;32646;50.958;6.258;2023-01-10T09:21:08;7.10;99.90
46898;DHT22;32646;50.958;6.258;2023-01-10T09:23:35;7.20;99.90
46898;DHT22;32646;50.958;6.258;2023-01-10T09:26:03;7.10;99.90
46898;DHT22;32646;50.958;6.258;2023-01-10T09:28:29;7.40;99.90
46898;DHT22;32646;50.958;6.258;2023-01-10T09:30:56;7.00;99.90
46898;DHT22;32646;50.958;6.258;2023-01-10T09:33:22;6.90;99.90
46898;DHT22;32646;50.958;6.258;2023-01-10T09:35:49;6.90;99.90
46898;DHT22;32646;50.958;6.258;2023-01-10T09:38:17;7.10;99.90
46898;DHT22;32646;50.958;6.258;2023-01-10T09:49:55;7.40;99.90
46898;DHT22;32646;50.958;6.258;2023-01-10T09:52:31;7.50;99.90
46898;DHT22;32646;50.958;6.258;2023-01-10T09:55:29;7.80;99.90
46898;DHT22;32646;50.958;6.258;2023-01-10T09:58:00;8.10;99.90
46898;DHT22;32646;50.958;6.258;2023-01-10T10:03:24;8.20;99.90
46898;DHT22;32646;50.958;6.258;2023-01-10T10:05:56;8.40;99.90
46898;DHT22;32646;50.958;6.258;2023-01-10T10:08:37;8.40;99.90
46898;DHT22;32646;50.958;6.258;2023-01-10T10:14:06;8.00;99.90
46898;DHT22;32646;50.958;6.258;2023-01-10T10:17:07;7.90;99.90
46898;DHT22;32646;50.958;6.258;2023-01-10T10:28:15;8.00;99.90
46898;DHT22;32646;50.958;6.258;2023-01-10T10:36:37;8.00;99.90
46898;DHT22;32646;50.958;6.258;2023-01-10T10:39:04;8.00;99.90
46898;DHT22;32646;50.958;6.258;2023-01-10T10:41:39;8.10;99.90
46898;DHT22;32646;50.958;6.258;2023-01-10T10:44:24;8.00;99.90
46898;DHT22;32646;50.958;6.258;2023-01-10T10:46:52;8.10;99.90
46898;DHT22;32646;50.958;6.258;2023-01-10T10:49:49;8.00;99.90
46898;DHT22;32646;50.958;6.258;2023-01-10T10:52:24;8.00;99.90
46898;DHT22;32646;50.958;6.258;2023-01-10T10:54:52;7.90;99.90
46898;DHT22;32646;50.958;6.258;2023-01-10T10:57:23;7.90;99.90
46898;DHT22;32646;50.958;6.258;2023-01-10T10:59:50;7.80;99.90
46898;DHT22;32646;50.958;6.258;2023-01-10T11:02:28;7.90;99.90
46898;DHT22;32646;50.958;6.258;2023-01-10T11:04:58;7.80;99.90
46898;DHT22;32646;50.958;6.258;2023-01-10T11:07:30;7.90;99.90
46898;DHT22;32646;50.958;6.258;2023-01-10T11:09:57;7.90;99.90
46898;DHT22;32646;50.958;6.258;2023-01-10T11:12:29;7.90;99.90
46898;DHT22;32646;50.958;6.258;2023-01-10T11:14:56;8.00;99.90
46898;DHT22;32646;50.958;6.258;2023-01-10T11:17:26;8.00;99.90
46898;DHT22;32646;50.958;6.258;2023-01-10T11:20:04;8.10;99.90
46898;DHT22;32646;50.958;6.258;2023-01-10T11:22:39;8.20;99.90
46898;DHT22;32646;50.958;6.258;2023-01-10T11:25:17;8.20;99.90
46898;DHT22;32646;50.958;6.258;2023-01-10T11:27:49;8.20;99.90
46898;DHT22;32646;50.958;6.258;2023-01-10T11:30:27;8.20;99.90
46898;DHT22;32646;50.958;6.258;2023-01-10T11:33:00;8.30;99.90
46898;DHT22;32646;50.958;6.258;2023-01-10T11:35:33;8.30;99.90
46898;DHT22;32646;50.958;6.258;2023-01-10T11:40:31;8.50;99.90
46898;DHT22;32646;50.958;6.258;2023-01-10T11:42:59;8.60;99.90
46898;DHT22;32646;50.958;6.258;2023-01-10T11:45:31;8.60;99.90
46898;DHT22;32646;50.958;6.258;2023-01-10T11:48:23;8.60;99.90
46898;DHT22;32646;50.958;6.258;2023-01-10T11:51:23;8.60;99.90
46898;DHT22;32646;50.958;6.258;2023-01-10T11:53:54;8.70;99.90
46898;DHT22;32646;50.958;6.258;2023-01-10T11:56:28;8.60;99.90
46898;DHT22;32646;50.958;6.258;2023-01-10T11:58:57;8.70;99.90
46898;DHT22;32646;50.958;6.258;2023-01-10T12:01:40;8.70;99.90
46898;DHT22;32646;50.958;6.258;2023-01-10T12:04:13;8.60;99.90
46898;DHT22;32646;50.958;6.258;2023-01-10T12:06:52;8.60;99.90
46898;DHT22;32646;50.958;6.258;2023-01-10T12:09:39;8.60;99.90
46898;DHT22;32646;50.958;6.258;2023-01-10T12:12:16;8.60;99.90
46898;DHT22;32646;50.958;6.258;2023-01-10T12:14:44;8.60;99.90
46898;DHT22;32646;50.958;6.258;2023-01-10T12:17:27;8.60;99.90
46898;DHT22;32646;50.958;6.258;2023-01-10T12:19:55;8.60;99.90
46898;DHT22;32646;50.958;6.258;2023-01-10T12:22:28;8.60;99.90
46898;DHT22;32646;50.958;6.258;2023-01-10T12:24:58;8.60;99.90
46898;DHT22;32646;50.958;6.258;2023-01-10T12:27:26;8.50;99.90
46898;DHT22;32646;50.958;6.258;2023-01-10T12:30:14;8.50;99.90
46898;DHT22;32646;50.958;6.258;2023-01-10T12:32:47;8.40;99.90
46898;DHT22;32646;50.958;6.258;2023-01-10T12:35:33;8.40;99.90
46898;DHT22;32646;50.958;6.258;2023-01-10T12:38:24;8.50;99.90
46898;DHT22;32646;50.958;6.258;2023-01-10T12:40:57;8.40;99.90
46898;DHT22;32646;50.958;6.258;2023-01-10T12:43:37;8.20;99.90
46898;DHT22;32646;50.958;6.258;2023-01-10T12:46:32;8.30;99.90
46898;DHT22;32646;50.958;6.258;2023-01-10T12:49:28;8.30;99.90
46898;DHT22;32646;50.958;6.258;2023-01-10T12:52:05;8.30;99.90
46898;DHT22;32646;50.958;6.258;2023-01-10T12:54:33;8.30;99.90
46898;DHT22;32646;50.958;6.258;2023-01-10T12:57:04;8.30;99.90
46898;DHT22;32646;50.958;6.258;2023-01-10T12:59:36;8.20;99.90
46898;DHT22;32646;50.958;6.258;2023-01-10T13:02:13;8.10;99.90
46898;DHT22;32646;50.958;6.258;2023-01-10T13:04:44;8.10;99.90
46898;DHT22;32646;50.958;6.258;2023-01-10T13:07:11;8.00;99.90
46898;DHT22;32646;50.958;6.258;2023-01-10T13:09:40;8.00;99.90
46898;DHT22;32646;50.958;6.258;2023-01-10T13:12:17;8.10;99.90
46898;DHT22;32646;50.958;6.258;2023-01-10T13:15:05;8.00;99.90
46898;DHT22;32646;50.958;6.258;2023-01-10T13:20:24;8.00;99.90
46898;DHT22;32646;50.958;6.258;2023-01-10T13:22:56;8.00;99.90
46898;DHT22;32646;50.958;6.258;2023-01-10T13:25:29;8.00;99.90
46898;DHT22;32646;50.958;6.258;2023-01-10T13:27:57;8.00;99.90
46898;DHT22;32646;50.958;6.258;2023-01-10T13:33:28;8.00;99.90
46898;DHT22;32646;50.958;6.258;2023-01-10T13:36:05;8.00;99.90
46898;DHT22;32646;50.958;6.258;2023-01-10T13:38:57;8.00;99.90
46898;DHT22;32646;50.958;6.258;2023-01-10T13:44:22;7.90;99.90
46898;DHT22;32646;50.958;6.258;2023-01-10T13:46:49;7.90;99.90
46898;DHT22;32646;50.958;6.258;2023-01-10T13:49:38;7.80;99.90
46898;DHT22;32646;50.958;6.258;2023-01-10T13:52:33;7.70;99.90
46898;DHT22;32646;50.958;6.258;2023-01-10T13:55:01;7.80;99.90
46898;DHT22;32646;50.958;6.258;2023-01-10T13:57:59;7.80;99.90
46898;DHT22;32646;50.958;6.258;2023-01-10T14:00:44;7.70;99.90
46898;DHT22;32646;50.958;6.258;2023-01-10T14:06:06;7.70;99.90
46898;DHT22;32646;50.958;6.258;2023-01-10T14:08:35;7.70;99.90
46898;DHT22;32646;50.958;6.258;2023-01-10T14:11:07;7.80;99.90
46898;DHT22;32646;50.958;6.258;2023-01-10T14:13:35;7.80;99.90
46898;DHT22;32646;50.958;6.258;2023-01-10T14:16:01;7.70;99.90
46898;DHT22;32646;50.958;6.258;2023-01-10T14:18:35;7.70;99.90
46898;DHT22;32646;50.958;6.258;2023-01-10T14:21:06;7.80;99.90
46898;DHT22;32646;50.958;6.258;2023-01-10T14:23:47;7.70;99.90
46898;DHT22;32646;50.958;6.258;2023-01-10T14:26:21;7.70;99.90
46898;DHT22;32646;50.958;6.258;2023-01-10T14:28:51;7.70;99.90
46898;DHT22;32646;50.958;6.258;2023-01-10T14:31:21;7.70;99.90
46898;DHT22;32646;50.958;6.258;2023-01-10T14:33:48;7.70;99.90
46898;DHT22;32646;50.958;6.258;2023-01-10T14:36:32;7.70;99.90
46898;DHT22;32646;50.958;6.258;2023-01-10T14:39:03;7.70;99.90
46898;DHT22;32646;50.958;6.258;2023-01-10T14:41:37;7.70;99.90
46898;DHT22;32646;50.958;6.258;2023-01-10T14:44:26;7.70;99.90
46898;DHT22;32646;50.958;6.258;2023-01-10T14:46:55;7.60;99.90
46898;DHT22;32646;50.958;6.258;2023-01-10T14:49:27;7.50;99.90
46898;DHT22;32646;50.958;6.258;2023-01-10T14:51:56;7.40;99.90
46898;DHT22;32646;50.958;6.258;2023-01-10T14:54:36;7.20;99.90
46898;DHT22;32646;50.958;6.258;2023-01-10T14:57:02;7.10;99.90
46898;DHT22;32646;50.958;6.258;2023-01-10T14:59:33;7.00;99.90
46898;DHT22;32646;50.958;6.258;2023-01-10T15:02:20;7.00;99.90
46898;DHT22;32646;50.958;6.258;2023-01-10T15:07:16;6.90;99.90
46898;DHT22;32646;50.958;6.258;2023-01-10T15:09:47;7.00;99.90
46898;DHT22;32646;50.958;6.258;2023-01-10T15:12:16;6.90;99.90
46898;DHT22;32646;50.958;6.258;2023-01-10T15:14:43;6.80;99.90
46898;DHT22;32646;50.958;6.258;2023-01-10T15:17:16;6.70;99.90
46898;DHT22;32646;50.958;6.258;2023-01-10T15:19:48;6.70;99.90
46898;DHT22;32646;50.958;6.258;2023-01-10T15:22:32;6.60;99.90
46898;DHT22;32646;50.958;6.258;2023-01-10T15:25:04;6.60;99.90
46898;DHT22;32646;50.958;6.258;2023-01-10T15:27:31;6.50;99.90
46898;DHT22;32646;50.958;6.258;2023-01-10T15:29:59;6.50;99.90
46898;DHT22;32646;50.958;6.258;2023-01-10T15:32:33;6.50;99.90
46898;DHT22;32646;50.958;6.258;2023-01-10T15:35:01;6.50;99.90
46898;DHT22;32646;50.958;6.258;2023-01-10T15:37:30;6.50;99.90
46898;DHT22;32646;50.958;6.258;2023-01-10T15:39:58;6.50;99.90
46898;DHT22;32646;50.958;6.258;2023-01-10T15:42:25;6.50;99.90
46898;DHT22;32646;50.958;6.258;2023-01-10T15:44:52;6.50;99.90
46898;DHT22;32646;50.958;6.258;2023-01-10T15:47:36;6.50;99.90
46898;DHT22;32646;50.958;6.258;2023-01-10T15:50:38;6.50;99.90
46898;DHT22;32646;50.958;6.258;2023-01-10T15:53:10;6.40;99.90
46898;DHT22;32646;50.958;6.258;2023-01-10T15:55:55;6.40;99.90
46898;DHT22;32646;50.958;6.258;2023-01-10T15:58:36;6.40;99.90
46898;DHT22;32646;50.958;6.258;2023-01-10T16:01:03;6.40;99.90
46898;DHT22;32646;50.958;6.258;2023-01-10T16:03:42;6.50;99.90
46898;DHT22;32646;50.958;6.258;2023-01-10T16:06:25;6.50;99.90
46898;DHT22;32646;50.958;6.258;2023-01-10T16:08:54;6.50;99.90
46898;DHT22;32646;50.958;6.258;2023-01-10T16:11:45;6.50;99.90
46898;DHT22;32646;50.958;6.258;2023-01-10T16:14:09;6.50;99.90
46898;DHT22;32646;50.958;6.258;2023-01-10T16:16:36;6.50;99.90
46898;DHT22;32646;50.958;6.258;2023-01-10T16:19:03;6.50;99.90
46898;DHT22;32646;50.958;6.258;2023-01-10T16:21:54;6.50;99.90
46898;DHT22;32646;50.958;6.258;2023-01-10T16:24:24;6.50;99.90
46898;DHT22;32646;50.958;6.258;2023-01-10T16:26:51;6.50;99.90
46898;DHT22;32646;50.958;6.258;2023-01-10T16:29:18;6.50;99.90
46898;DHT22;32646;50.958;6.258;2023-01-10T16:31:45;6.50;99.90
46898;DHT22;32646;50.958;6.258;2023-01-10T16:34:12;6.60;99.90
46898;DHT22;32646;50.958;6.258;2023-01-10T16:36:38;6.60;99.90
46898;DHT22;32646;50.958;6.258;2023-01-10T16:39:11;6.50;99.90
46898;DHT22;32646;50.958;6.258;2023-01-10T16:41:41;6.40;99.90
46898;DHT22;32646;50.958;6.258;2023-01-10T16:44:08;6.30;99.90
46898;DHT22;32646;50.958;6.258;2023-01-10T16:46:34;6.20;99.90
46898;DHT22;32646;50.958;6.258;2023-01-10T16:49:01;6.20;99.90
46898;DHT22;32646;50.958;6.258;2023-01-10T16:51:28;6.20;99.90
46898;DHT22;32646;50.958;6.258;2023-01-10T16:53:55;6.20;99.90
46898;DHT22;32646;50.958;6.258;2023-01-10T16:56:24;6.30;99.90
46898;DHT22;32646;50.958;6.258;2023-01-10T16:58:52;6.20;99.90
46898;DHT22;32646;50.958;6.258;2023-01-10T17:01:22;6.30;99.90
46898;DHT22;32646;50.958;6.258;2023-01-10T17:03:50;6.40;99.90
46898;DHT22;32646;50.958;6.258;2023-01-10T17:06:17;6.40;99.90
46898;DHT22;32646;50.958;6.258;2023-01-10T17:08:44;6.40;99.90
46898;DHT22;32646;50.958;6.258;2023-01-10T17:11:24;6.30;99.90
46898;DHT22;32646;50.958;6.258;2023-01-10T17:13:52;6.40;99.90
46898;DHT22;32646;50.958;6.258;2023-01-10T17:16:19;6.40;99.90
46898;DHT22;32646;50.958;6.258;2023-01-10T17:18:46;6.50;99.90
46898;DHT22;32646;50.958;6.258;2023-01-10T17:21:15;6.70;99.90
46898;DHT22;32646;50.958;6.258;2023-01-10T17:23:41;6.90;99.90